Time;durP1;ratioP1;P1;durP2;ratioP2;P2;SDS_P1;SDS_P2;PMS_P1;PMS_P2;Temp;Humidity;BMP_temperature;BMP_pressure;BME280_temperature;BME280_humidity;BME280_pressure;Samples;Min_cycle;Max_cycle;Signal;HPM_P1;HPM_P2
2022/11/27 00:01:33;;;;;;;16.48;5.72;;;;;;;5.43;98.52;102413.13;5010148;28;21985;-60
2022/11/27 00:03:59;;;;;;;17.20;5.65;;;;;;;5.40;98.17;102413.31;5006946;28;20489;-60
2022/11/27 00:06:26;;;;;;;19.15;6.10;;;;;;;5.41;98.98;102417.63;5008391;28;20042;-60
2022/11/27 00:08:52;;;;;;;16.48;5.40;;;;;;;5.34;97.97;102414.50;5006121;28;20037;-59
2022/11/27 00:11:22;;;;;;;19.63;5.32;;;;;;;5.35;98.30;102420.63;5004136;28;20037;-58
2022/11/27 00:13:49;;;;;;;16.70;5.75;;;;;;;5.32;98.38;102415.56;5006237;28;20033;-59
2022/11/27 00:16:15;;;;;;;15.10;5.85;;;;;;;5.31;98.60;102408.56;5021459;28;20049;-59
2022/11/27 00:18:41;;;;;;;18.90;5.90;;;;;;;5.32;99.08;102410.28;5013818;28;20076;-59
2022/11/27 00:21:15;;;;;;;18.27;5.90;;;;;;;5.25;98.37;102413.25;5005542;28;20034;-59
2022/11/27 00:23:40;;;;;;;15.88;5.90;;;;;;;5.23;99.67;102401.97;5014610;28;20037;-58
2022/11/27 00:26:06;;;;;;;17.75;5.82;;;;;;;5.21;98.73;102393.34;5007329;28;20033;-58
2022/11/27 00:28:32;;;;;;;19.27;6.00;;;;;;;5.19;99.35;102389.91;5007827;28;20469;-57
2022/11/27 00:31:12;;;;;;;15.63;5.63;;;;;;;5.18;98.92;102388.22;5017315;28;20028;-57
2022/11/27 00:33:38;;;;;;;15.63;6.03;;;;;;;5.13;99.35;102385.00;5016613;28;20037;-55
2022/11/27 00:36:05;;;;;;;20.45;5.57;;;;;;;5.13;98.89;102384.19;5014697;28;20037;-60
2022/11/27 00:38:31;;;;;;;20.67;5.88;;;;;;;5.07;99.32;102378.34;5021639;28;20122;-58
2022/11/27 00:41:06;;;;;;;21.50;6.63;;;;;;;5.07;99.79;102388.00;5020102;28;20607;-59
2022/11/27 00:43:33;;;;;;;20.83;6.53;;;;;;;5.05;99.88;102384.63;5012846;28;20046;-59
2022/11/27 00:45:58;;;;;;;22.05;6.60;;;;;;;5.06;100.00;102378.41;5018466;28;20288;-60
2022/11/27 00:48:23;;;;;;;19.20;6.53;;;;;;;5.03;99.99;102375.97;5018083;28;20029;-57
2022/11/27 00:50:48;;;;;;;19.55;7.28;;;;;;;4.98;99.74;102379.69;5010410;28;20030;-61
2022/11/27 00:53:14;;;;;;;19.58;6.68;;;;;;;4.96;99.84;102373.69;5015419;28;20025;-59
2022/11/27 00:55:39;;;;;;;19.60;6.38;;;;;;;4.97;99.50;102374.53;5017732;28;20070;-57
2022/11/27 00:58:04;;;;;;;19.92;6.53;;;;;;;4.93;99.52;102373.84;5016698;28;20496;-59
2022/11/27 01:00:29;;;;;;;18.48;6.85;;;;;;;4.91;99.95;102357.31;5008345;28;20022;-59
2022/11/27 01:02:55;;;;;;;20.67;6.15;;;;;;;4.93;100.00;102360.72;5006344;28;20496;-58
2022/11/27 01:05:20;;;;;;;21.42;6.50;;;;;;;4.94;100.00;102349.25;5017688;28;20037;-57
2022/11/27 01:07:45;;;;;;;22.42;6.55;;;;;;;4.95;99.79;102350.09;5010569;28;20041;-57
2022/11/27 01:10:11;;;;;;;21.38;6.60;;;;;;;4.89;100.00;102348.66;5011660;28;20859;-58
2022/11/27 01:12:36;;;;;;;20.30;6.80;;;;;;;4.91;100.00;102349.44;5013571;28;20033;-57
2022/11/27 01:15:02;;;;;;;16.40;6.03;;;;;;;4.91;99.86;102338.06;5013043;28;20025;-58
2022/11/27 01:17:28;;;;;;;19.08;6.40;;;;;;;4.89;99.93;102327.63;5008997;28;20090;-60
2022/11/27 01:19:53;;;;;;;21.30;6.70;;;;;;;4.86;99.97;102325.19;5011104;28;20044;-57
2022/11/27 01:22:18;;;;;;;17.63;6.38;;;;;;;4.83;100.00;102326.22;5008886;28;20030;-61
2022/11/27 01:24:45;;;;;;;19.48;5.75;;;;;;;4.85;100.00;102336.63;5015354;28;20033;-57
2022/11/27 01:27:10;;;;;;;19.95;6.05;;;;;;;4.85;100.00;102344.53;5013157;28;20668;-57
2022/11/27 01:29:35;;;;;;;18.83;6.00;;;;;;;4.82;100.00;102339.44;5011463;28;20116;-59
2022/11/27 01:32:00;;;;;;;23.40;6.28;;;;;;;4.85;100.00;102339.28;5007046;28;20033;-57
2022/11/27 01:34:26;;;;;;;22.25;6.78;;;;;;;4.84;100.00;102334.94;5011428;28;20064;-57
2022/11/27 01:36:51;;;;;;;17.27;6.00;;;;;;;4.82;100.00;102324.53;5017895;28;20030;-58
2022/11/27 01:39:18;;;;;;;18.40;5.75;;;;;;;4.81;99.92;102316.72;5006699;28;20064;-60
2022/11/27 01:41:44;;;;;;;18.60;6.28;;;;;;;4.76;99.80;102297.72;5012569;28;20034;-59
2022/11/27 01:44:24;;;;;;;20.00;6.10;;;;;;;4.80;100.00;102305.34;5013451;28;20492;-56
2022/11/27 01:46:57;;;;;;;22.17;6.72;;;;;;;4.78;100.00;102301.13;5011661;28;20434;-56
2022/11/27 01:49:28;;;;;;;21.98;6.70;;;;;;;4.75;100.00;102306.53;5009759;28;20076;-56
2022/11/27 01:52:03;;;;;;;21.23;6.88;;;;;;;4.74;100.00;102299.59;5014682;28;20033;-59
2022/11/27 01:54:38;;;;;;;19.67;6.47;;;;;;;4.76;100.00;102289.84;5018221;28;20029;-57
2022/11/27 01:57:08;;;;;;;19.63;6.72;;;;;;;4.73;100.00;102279.53;5018657;28;20034;-57
2022/11/27 01:59:34;;;;;;;20.23;6.80;;;;;;;4.73;100.00;102279.53;5005870;28;20116;-57
2022/11/27 02:02:01;;;;;;;19.23;7.00;;;;;;;4.67;99.97;102257.03;5006468;28;20132;-57
2022/11/27 02:04:26;;;;;;;23.80;7.70;;;;;;;4.63;100.00;102272.13;5010697;28;20033;-58
2022/11/27 02:06:54;;;;;;;20.05;7.00;;;;;;;4.64;100.00;102260.69;5008698;28;20470;-57
2022/11/27 02:09:20;;;;;;;26.48;7.93;;;;;;;4.60;99.81;102256.56;5007625;28;20030;-55
2022/11/27 02:12:00;;;;;;;19.85;7.20;;;;;;;4.56;100.00;102249.78;5011694;28;20907;-56
2022/11/27 02:14:43;;;;;;;19.15;6.90;;;;;;;4.56;99.88;102240.13;5016012;28;20072;-57
2022/11/27 02:17:21;;;;;;;;;;;;;;;4.61;99.41;102237.25;5017774;28;20057;-59
2022/11/27 02:20:10;;;;;;;21.75;7.20;;;;;;;4.50;99.82;102239.63;5016230;28;20448;-60
2022/11/27 02:23:11;;;;;;;16.48;7.57;;;;;;;4.52;99.86;102240.38;5007952;28;20072;-60
2022/11/27 02:25:36;;;;;;;21.85;7.50;;;;;;;4.46;100.00;102225.81;5007764;28;20033;-56
2022/11/27 02:28:17;;;;;;;20.83;7.13;;;;;;;4.39;99.68;102227.94;5021911;28;20427;-60
2022/11/27 02:30:50;;;;;;;21.23;7.78;;;;;;;4.39;99.99;102220.06;5019157;28;20033;-60
2022/11/27 02:33:19;;;;;;;26.65;8.07;;;;;;;4.36;99.61;102217.63;5018570;28;20095;-58
2022/11/27 02:35:54;;;;;;;22.33;7.15;;;;;;;4.35;99.21;102226.44;5017858;28;20036;-60
2022/11/27 02:38:27;;;;;;;19.48;7.35;;;;;;;4.37;99.31;102223.69;5012658;28;20128;-57
2022/11/27 02:40:55;;;;;;;;;;;;;;;4.48;99.92;102216.06;5019096;28;20053;-60
2022/11/27 02:43:29;;;;;;;22.60;7.47;;;;;;;4.33;99.20;102199.38;5024279;28;20302;-56
2022/11/27 02:45:57;;;;;;;19.20;7.35;;;;;;;4.41;99.54;102206.84;5018183;28;20117;-58
2022/11/27 02:48:30;;;;;;;25.73;8.20;;;;;;;4.40;99.60;102211.22;5013597;28;20067;-58
2022/11/27 02:50:55;;;;;;;18.95;7.38;;;;;;;4.42;99.56;102206.75;5010946;28;20030;-58
2022/11/27 02:53:31;;;;;;;19.23;7.50;;;;;;;4.38;98.79;102215.75;5019780;28;20045;-58
2022/11/27 02:55:58;;;;;;;18.60;6.97;;;;;;;4.39;98.90;102222.69;5017425;28;20107;-58
2022/11/27 02:58:26;;;;;;;18.67;7.35;;;;;;;4.38;98.72;102226.25;5013571;28;20056;-57
2022/11/27 03:00:53;;;;;;;24.77;7.60;;;;;;;4.39;98.20;102224.47;5012605;28;20057;-59
2022/11/27 03:03:26;;;;;;;16.42;6.70;;;;;;;4.39;98.94;102227.94;5011412;28;20034;-60
2022/11/27 03:05:56;;;;;;;18.75;7.20;;;;;;;4.39;98.51;102230.56;5012410;28;20124;-58
2022/11/27 03:08:33;;;;;;;17.27;7.13;;;;;;;4.37;98.59;102229.81;5017251;28;20750;-58
2022/11/27 03:11:04;;;;;;;20.13;7.18;;;;;;;4.41;99.10;102231.34;5021383;28;20081;-57
2022/11/27 03:13:36;;;;;;;17.65;6.85;;;;;;;4.35;98.01;102226.44;5018763;28;20049;-57
2022/11/27 03:16:35;;;;;;;19.10;6.95;;;;;;;4.39;98.23;102217.44;5010625;28;20038;-60
2022/11/27 03:19:19;;;;;;;19.85;6.72;;;;;;;4.46;98.56;102217.94;5012321;28;20082;-59
2022/11/27 03:21:50;;;;;;;21.00;7.05;;;;;;;4.39;97.97;102212.19;5016389;28;20029;-58
2022/11/27 03:24:15;;;;;;;20.42;6.72;;;;;;;4.40;97.68;102202.53;5013222;28;20034;-58
2022/11/27 03:26:42;;;;;;;16.70;6.70;;;;;;;4.40;98.09;102208.59;5021205;28;20041;-57
2022/11/27 03:29:13;;;;;;;14.52;6.30;;;;;;;4.38;97.35;102205.22;5015588;28;20029;-56
2022/11/27 03:31:39;;;;;;;16.60;5.82;;;;;;;4.43;97.57;102208.44;5020981;28;20037;-58
2022/11/27 03:34:04;;;;;;;18.05;6.35;;;;;;;4.42;97.12;102217.28;5014204;28;20037;-58
2022/11/27 03:36:30;;;;;;;16.20;6.10;;;;;;;4.42;96.99;102206.75;5022576;28;20033;-59
2022/11/27 03:38:55;;;;;;;14.73;6.05;;;;;;;4.44;96.49;102207.50;5016280;28;20030;-58
2022/11/27 03:41:25;;;;;;;20.95;6.40;;;;;;;4.46;97.36;102196.06;5022935;28;20057;-61
2022/11/27 03:44:30;;;;;;;15.85;5.80;;;;;;;4.51;96.91;102189.63;5015178;28;20036;-59
2022/11/27 03:47:19;;;;;;;13.45;6.07;;;;;;;4.48;96.36;102168.78;5017873;28;20047;-56
2022/11/27 03:50:04;;;;;;;13.60;5.70;;;;;;;4.48;95.91;102168.78;5012610;28;20129;-59
2022/11/27 03:53:19;;;;;;;16.42;5.47;;;;;;;4.51;96.04;102173.00;5009621;28;20029;-58
2022/11/27 03:56:09;;;;;;;14.93;5.82;;;;;;;4.49;95.71;102190.66;5016589;28;20536;-58
2022/11/27 03:58:39;;;;;;;15.88;5.47;;;;;;;4.48;95.43;102173.19;5016173;28;20037;-56
2022/11/27 04:01:09;;;;;;;15.48;5.43;;;;;;;4.49;95.96;102170.47;5010193;28;20048;-59
2022/11/27 04:03:35;;;;;;;13.98;5.32;;;;;;;4.51;95.51;102173.88;5014627;28;20476;-61
2022/11/27 04:06:01;;;;;;;12.85;5.28;;;;;;;4.52;95.82;102172.06;5015969;28;20092;-59
2022/11/27 04:08:26;;;;;;;12.45;5.45;;;;;;;4.54;94.61;102194.69;5013194;28;20033;-60
2022/11/27 04:10:52;;;;;;;14.50;5.50;;;;;;;4.57;94.36;102185.78;5013167;28;20068;-58
2022/11/27 04:13:17;;;;;;;13.80;5.18;;;;;;;4.57;94.80;102194.53;5009173;28;20029;-57
2022/11/27 04:15:42;;;;;;;11.13;4.88;;;;;;;4.62;94.84;102190.75;5023302;28;20040;-57
2022/11/27 04:18:08;;;;;;;15.43;5.10;;;;;;;4.61;94.92;102189.09;5019737;28;20033;-61
2022/11/27 04:20:33;;;;;;;13.32;5.28;;;;;;;4.60;94.87;102198.75;5016883;28;20034;-57
2022/11/27 04:22:58;;;;;;;14.95;5.43;;;;;;;4.64;95.01;102199.44;5022495;28;20033;-58
2022/11/27 04:25:24;;;;;;;12.15;4.97;;;;;;;4.64;94.68;102197.63;5008085;28;20393;-60
2022/11/27 04:27:49;;;;;;;13.88;5.10;;;;;;;4.62;94.58;102196.88;5011810;28;20033;-57
2022/11/27 04:30:16;;;;;;;14.98;5.30;;;;;;;4.62;93.93;102196.88;5013264;28;20041;-56
2022/11/27 04:32:41;;;;;;;13.07;4.78;;;;;;;4.64;95.09;102179.25;5021368;28;20048;-57
2022/11/27 04:35:06;;;;;;;11.02;5.00;;;;;;;4.64;94.20;102189.75;5014878;28;20029;-59
2022/11/27 04:37:32;;;;;;;12.55;5.03;;;;;;;4.62;94.97;102186.38;5015600;28;20030;-57
2022/11/27 04:39:57;;;;;;;12.05;5.03;;;;;;;4.59;95.02;102189.16;5006208;28;20061;-60
2022/11/27 04:42:22;;;;;;;14.80;5.35;;;;;;;4.61;94.37;102189.94;5018133;28;20064;-58
2022/11/27 04:44:48;;;;;;;13.95;5.38;;;;;;;4.61;94.55;102189.94;5009024;28;20029;-59
2022/11/27 04:47:13;;;;;;;11.32;5.30;;;;;;;4.63;94.25;102193.31;5009949;28;20653;-57
2022/11/27 04:49:38;;;;;;;15.15;5.40;;;;;;;4.63;94.53;102182.81;5007448;28;20040;-57
2022/11/27 04:52:03;;;;;;;14.43;5.38;;;;;;;4.64;94.72;102173.97;5018637;28;20107;-59
2022/11/27 04:54:29;;;;;;;13.30;5.00;;;;;;;4.57;93.96;102157.75;5011023;28;20029;-55
2022/11/27 04:56:54;;;;;;;13.70;5.35;;;;;;;4.62;94.56;102165.34;5012194;28;20027;-60
2022/11/27 04:59:19;;;;;;;14.30;5.25;;;;;;;4.63;94.91;102159.16;5013145;28;20033;-60
2022/11/27 05:01:45;;;;;;;15.48;5.70;;;;;;;4.65;94.23;102154.69;5007731;28;20034;-61
2022/11/27 05:04:10;;;;;;;11.73;5.15;;;;;;;4.61;94.67;102158.41;5015843;28;20037;-57
2022/11/27 05:06:35;;;;;;;10.82;5.10;;;;;;;4.63;93.82;102161.78;5013864;28;20189;-57
2022/11/27 05:09:01;;;;;;;13.68;5.18;;;;;;;4.62;94.38;102149.59;5011958;28;20029;-59
2022/11/27 05:11:30;;;;;;;16.60;5.28;;;;;;;4.62;94.74;102143.47;5015290;28;20053;-58
2022/11/27 05:14:15;;;;;;;11.95;5.05;;;;;;;4.63;94.38;102134.69;5013191;28;20026;-58
2022/11/27 05:16:41;;;;;;;12.57;5.63;;;;;;;4.62;93.95;102132.97;5019893;28;20037;-58
2022/11/27 05:19:09;;;;;;;12.88;5.20;;;;;;;4.63;94.58;102135.50;5013756;28;20033;-58
2022/11/27 05:21:34;;;;;;;13.60;5.25;;;;;;;4.62;94.57;102139.06;5008760;28;20041;-56
2022/11/27 05:24:00;;;;;;;15.10;5.38;;;;;;;4.63;94.79;102135.50;5015456;28;20025;-59
2022/11/27 05:26:25;;;;;;;11.35;5.22;;;;;;;4.64;94.17;102131.13;5021797;28;20033;-56
2022/11/27 05:28:50;;;;;;;12.13;4.85;;;;;;;4.64;93.89;102131.94;5019015;28;20036;-58
2022/11/27 05:31:16;;;;;;;11.65;5.22;;;;;;;4.64;93.61;102128.47;5020911;28;20034;-57
2022/11/27 05:33:41;;;;;;;12.95;4.88;;;;;;;4.63;93.89;102127.63;5011532;28;20116;-59
2022/11/27 05:36:06;;;;;;;12.15;5.00;;;;;;;4.65;94.25;102125.78;5018452;28;20428;-59
2022/11/27 05:38:32;;;;;;;12.02;4.93;;;;;;;4.64;93.91;102126.69;5014165;28;20030;-57
2022/11/27 05:40:57;;;;;;;11.00;4.85;;;;;;;4.65;93.63;102117.88;5015319;28;20819;-58
2022/11/27 05:43:22;;;;;;;13.43;5.38;;;;;;;4.66;93.93;102119.56;5013105;28;20030;-60
2022/11/27 05:45:47;;;;;;;11.20;4.80;;;;;;;4.67;94.10;102116.00;5015557;28;20037;-58
2022/11/27 05:48:13;;;;;;;14.68;5.10;;;;;;;4.67;93.79;102110.75;5014256;28;20042;-57
2022/11/27 05:50:38;;;;;;;14.05;4.95;;;;;;;4.71;93.66;102106.16;5012810;28;20029;-58
2022/11/27 05:53:04;;;;;;;12.55;4.75;;;;;;;4.69;94.28;102103.63;5017785;28;20065;-57
2022/11/27 05:55:29;;;;;;;14.32;4.95;;;;;;;4.69;94.29;102093.09;5013629;28;20037;-59
2022/11/27 05:57:54;;;;;;;12.63;4.80;;;;;;;4.70;94.17;102089.53;5018012;28;20041;-57
2022/11/27 06:00:20;;;;;;;12.07;4.93;;;;;;;4.71;94.32;102090.38;5017372;28;20041;-60
2022/11/27 06:02:45;;;;;;;11.57;4.60;;;;;;;4.69;93.13;102085.22;5017237;28;20596;-58
2022/11/27 06:05:10;;;;;;;14.07;4.82;;;;;;;4.69;94.28;102097.53;5010150;28;20041;-60
2022/11/27 06:07:35;;;;;;;11.52;4.70;;;;;;;4.66;94.26;102085.41;5014627;28;20037;-58
2022/11/27 06:10:01;;;;;;;16.48;5.28;;;;;;;4.66;94.32;102088.03;5023012;28;20120;-57
2022/11/27 06:12:26;;;;;;;14.40;4.95;;;;;;;4.70;93.62;102088.72;5021212;28;20136;-56
2022/11/27 06:14:51;;;;;;;11.70;4.80;;;;;;;4.74;93.93;102087.56;5015895;28;20103;-58
2022/11/27 06:17:16;;;;;;;14.57;4.95;;;;;;;4.72;93.97;102081.56;5009735;28;20120;-57
2022/11/27 06:19:42;;;;;;;12.27;4.90;;;;;;;4.71;94.32;102086.00;5015515;28;20550;-56
2022/11/27 06:22:07;;;;;;;10.50;4.32;;;;;;;4.72;93.79;102081.56;5021298;28;20057;-58
2022/11/27 06:24:33;;;;;;;14.18;4.78;;;;;;;4.74;94.66;102084.09;5011408;28;20044;-57
2022/11/27 06:26:58;;;;;;;10.15;4.80;;;;;;;4.73;93.42;102082.41;5016977;28;20124;-60
2022/11/27 06:29:23;;;;;;;15.98;4.90;;;;;;;4.73;94.48;102071.91;5014027;28;20362;-57
2022/11/27 06:31:48;;;;;;;15.30;4.97;;;;;;;4.74;94.26;102070.97;5018991;28;20045;-57
2022/11/27 06:34:14;;;;;;;11.00;4.40;;;;;;;4.73;94.81;102078.00;5012735;28;20044;-59
2022/11/27 06:36:39;;;;;;;9.57;4.57;;;;;;;4.75;94.68;102077.91;5017499;28;20037;-59
2022/11/27 06:39:06;;;;;;;8.57;4.30;;;;;;;4.76;95.54;102082.22;5010738;28;20056;-59
2022/11/27 06:41:32;;;;;;;12.35;4.95;;;;;;;4.73;95.20;102077.16;5011733;28;20072;-57
2022/11/27 06:43:59;;;;;;;11.32;4.78;;;;;;;4.75;95.88;102083.16;5013977;28;20061;-57
2022/11/27 06:46:25;;;;;;;11.05;4.90;;;;;;;4.74;95.76;102081.47;5011836;28;20382;-58
2022/11/27 06:48:52;;;;;;;12.88;5.20;;;;;;;4.71;96.22;102080.72;5017352;28;20038;-58
2022/11/27 06:51:20;;;;;;;12.02;4.63;;;;;;;4.73;96.40;102082.41;5022282;28;20099;-57
2022/11/27 06:53:45;;;;;;;14.38;5.10;;;;;;;4.76;96.54;102066.44;5013842;28;20032;-57
2022/11/27 06:56:13;;;;;;;14.38;5.60;;;;;;;4.75;97.21;102060.38;5018697;28;20038;-57
2022/11/27 06:58:39;;;;;;;12.93;5.03;;;;;;;4.75;97.71;102063.00;5021817;28;20045;-58
2022/11/27 07:01:07;;;;;;;12.68;5.00;;;;;;;4.77;97.79;102062.88;5014015;28;20036;-57
2022/11/27 07:03:33;;;;;;;14.68;4.85;;;;;;;4.75;97.77;102059.50;5014724;28;20485;-59
2022/11/27 07:05:59;;;;;;;13.55;4.88;;;;;;;4.76;98.94;102059.44;5015623;28;20042;-58
2022/11/27 07:08:24;;;;;;;11.73;4.88;;;;;;;4.73;98.94;102046.47;5009203;28;20069;-60
2022/11/27 07:10:49;;;;;;;15.27;5.30;;;;;;;4.69;99.59;102048.44;5015191;28;20370;-57
2022/11/27 07:13:15;;;;;;;13.05;5.28;;;;;;;4.70;99.59;102046.66;5010470;28;20113;-57
2022/11/27 07:15:40;;;;;;;13.98;5.28;;;;;;;4.72;99.73;102029.00;5015498;28;20410;-59
2022/11/27 07:18:05;;;;;;;13.02;5.00;;;;;;;4.70;99.49;102029.09;5014410;28;20037;-60
2022/11/27 07:20:31;;;;;;;14.55;5.07;;;;;;;4.69;99.89;102022.16;5011497;28;20397;-57
2022/11/27 07:22:56;;;;;;;11.15;4.70;;;;;;;4.71;100.00;102019.44;5019465;28;20033;-60
2022/11/27 07:25:21;;;;;;;10.43;5.00;;;;;;;4.70;100.00;102020.38;5007156;28;20025;-61
2022/11/27 07:27:47;;;;;;;14.02;5.13;;;;;;;4.69;100.00;102011.63;5008866;28;20106;-57
2022/11/27 07:30:12;;;;;;;13.65;5.38;;;;;;;4.66;100.00;102019.72;5014466;28;20044;-59
2022/11/27 07:32:38;;;;;;;13.60;5.15;;;;;;;4.66;100.00;102014.47;5011292;28;20034;-57
2022/11/27 07:35:03;;;;;;;11.88;5.05;;;;;;;4.67;100.00;102005.66;5017981;28;20579;-59
2022/11/27 07:37:30;;;;;;;14.57;5.00;;;;;;;4.67;100.00;102010.91;5015139;28;20030;-60
2022/11/27 07:39:55;;;;;;;15.27;4.90;;;;;;;4.67;100.00;102005.66;5012495;28;20050;-58
2022/11/27 07:42:21;;;;;;;15.27;5.20;;;;;;;4.68;100.00;102004.69;5003480;28;20069;-58
2022/11/27 07:44:46;;;;;;;10.60;5.05;;;;;;;4.69;100.00;102003.75;5002061;28;20042;-60
2022/11/27 07:47:11;;;;;;;17.52;5.22;;;;;;;4.70;100.00;102010.69;5005880;28;20034;-57
2022/11/27 07:49:37;;;;;;;11.02;5.10;;;;;;;4.73;100.00;101998.34;5007764;28;20033;-56
2022/11/27 07:52:02;;;;;;;12.40;5.63;;;;;;;4.72;100.00;101992.22;5009988;28;20033;-57
2022/11/27 07:54:27;;;;;;;14.18;5.70;;;;;;;4.74;100.00;101979.00;5009693;28;20034;-61
2022/11/27 07:56:52;;;;;;;12.55;5.82;;;;;;;4.77;100.00;101978.78;5012291;28;20116;-57
2022/11/27 07:59:18;;;;;;;11.82;5.40;;;;;;;4.75;100.00;101968.38;5010180;28;20053;-58
2022/11/27 08:01:43;;;;;;;13.60;5.65;;;;;;;4.77;100.00;101963.00;5003308;28;20516;-61
2022/11/27 08:04:09;;;;;;;14.68;6.07;;;;;;;4.75;100.00;101964.91;5001703;28;20080;-59
2022/11/27 08:06:35;;;;;;;13.30;5.93;;;;;;;4.76;100.00;101966.59;5001341;28;20361;-58
2022/11/27 08:09:01;;;;;;;15.73;5.78;;;;;;;4.77;100.00;101957.75;5000443;28;20729;-57
2022/11/27 08:11:28;;;;;;;13.35;6.18;;;;;;;4.77;100.00;101963.00;5000273;28;20045;-57
2022/11/27 08:13:59;;;;;;;15.27;6.40;;;;;;;4.80;100.00;101962.84;5001635;28;20453;-58
2022/11/27 08:16:25;;;;;;;13.90;6.18;;;;;;;4.81;100.00;101964.53;5001966;28;20443;-58
2022/11/27 08:18:51;;;;;;;14.65;6.50;;;;;;;4.81;100.00;101967.16;5005224;28;20034;-60
2022/11/27 08:21:17;;;;;;;15.55;6.57;;;;;;;4.77;100.00;101963.88;4998831;28;20091;-59
2022/11/27 08:23:42;;;;;;;14.88;6.68;;;;;;;4.80;100.00;101955.78;5010997;28;20041;-57
2022/11/27 08:26:08;;;;;;;16.55;7.40;;;;;;;4.80;100.00;101953.16;5007926;28;20040;-58
2022/11/27 08:28:34;;;;;;;16.70;7.13;;;;;;;4.82;100.00;101956.56;5014289;28;20037;-59
2022/11/27 08:31:02;;;;;;;16.15;7.05;;;;;;;4.83;100.00;101958.22;5005296;28;20550;-59
2022/11/27 08:33:28;;;;;;;15.25;6.72;;;;;;;4.86;100.00;101962.47;5010413;28;20087;-57
2022/11/27 08:35:53;;;;;;;14.02;7.03;;;;;;;4.90;100.00;101960.47;5012502;28;20630;-58
2022/11/27 08:38:19;;;;;;;15.85;7.25;;;;;;;4.90;100.00;101968.38;5005789;28;20057;-57
2022/11/27 08:40:45;;;;;;;17.08;7.45;;;;;;;4.92;100.00;101964.69;5014487;28;20052;-56
2022/11/27 08:43:10;;;;;;;16.08;7.72;;;;;;;4.93;100.00;101961.13;5019476;28;20033;-56
2022/11/27 08:45:38;;;;;;;16.58;7.50;;;;;;;4.95;100.00;101953.97;5011749;28;20033;-59
2022/11/27 08:48:04;;;;;;;15.18;7.80;;;;;;;4.98;100.00;101956.44;5013280;28;20026;-59
2022/11/27 08:50:29;;;;;;;14.80;7.97;;;;;;;4.97;100.00;101949.47;5020492;28;20405;-58
2022/11/27 08:52:56;;;;;;;18.30;8.07;;;;;;;4.97;100.00;101960.00;5010622;28;20462;-61
2022/11/27 08:55:21;;;;;;;19.42;8.70;;;;;;;4.98;100.00;101961.69;5006227;28;20037;-60
2022/11/27 08:57:46;;;;;;;15.82;8.07;;;;;;;4.98;100.00;101960.81;5007748;28;20029;-58
2022/11/27 09:00:12;;;;;;;14.18;7.82;;;;;;;5.00;100.00;101958.09;5009229;28;20516;-58
2022/11/27 09:02:37;;;;;;;18.23;8.48;;;;;;;5.02;100.00;101970.22;5008438;28;20036;-58
2022/11/27 09:05:06;;;;;;;16.23;8.30;;;;;;;5.03;100.00;101968.44;5009283;28;20030;-57
2022/11/27 09:07:31;;;;;;;17.98;8.88;;;;;;;5.03;100.00;101969.28;5011505;28;20040;-58
2022/11/27 09:09:57;;;;;;;17.70;8.57;;;;;;;5.04;100.00;101965.69;5012558;28;20033;-57
2022/11/27 09:12:22;;;;;;;16.58;8.73;;;;;;;5.06;100.00;101962.97;5010026;28;20107;-59
2022/11/27 09:14:47;;;;;;;17.08;9.15;;;;;;;5.08;100.00;101966.38;5016747;28;20753;-57
2022/11/27 09:17:13;;;;;;;17.33;8.80;;;;;;;5.08;100.00;101955.84;5017888;28;20034;-57
2022/11/27 09:19:38;;;;;;;18.42;8.93;;;;;;;5.12;100.00;101962.59;5016633;28;20447;-57
2022/11/27 09:22:03;;;;;;;19.23;9.25;;;;;;;5.13;100.00;101961.63;5014703;28;20345;-59
2022/11/27 09:24:28;;;;;;;16.65;9.55;;;;;;;5.13;100.00;101964.25;5018043;28;20033;-58
2022/11/27 09:26:54;;;;;;;18.20;9.43;;;;;;;5.16;100.00;101963.22;5011066;28;20065;-56
2022/11/27 09:29:19;;;;;;;19.23;9.52;;;;;;;5.16;100.00;101952.72;5004733;28;20021;-58
2022/11/27 09:31:44;;;;;;;20.45;9.70;;;;;;;5.17;100.00;101962.31;5021758;28;20029;-61
2022/11/27 09:34:10;;;;;;;20.98;9.90;;;;;;;5.20;100.00;101959.47;5016582;28;20059;-56
2022/11/27 09:36:35;;;;;;;18.52;10.15;;;;;;;5.22;100.00;101963.69;5006608;28;20801;-59
2022/11/27 09:39:02;;;;;;;20.77;10.63;;;;;;;5.21;100.00;101962.00;5007036;28;20069;-57
2022/11/27 09:41:39;;;;;;;21.42;10.10;;;;;;;5.22;100.00;101958.44;5017965;28;20060;-58
2022/11/27 09:44:38;;;;;;;21.73;10.55;;;;;;;5.25;100.00;101958.22;5010085;28;20382;-59
2022/11/27 09:47:40;;;;;;;19.98;9.98;;;;;;;5.28;100.00;101951.91;5005479;28;20038;-57
2022/11/27 09:50:21;;;;;;;20.30;10.05;;;;;;;5.32;100.00;101947.34;5015252;28;20026;-57
2022/11/27 09:52:54;;;;;;;19.40;10.45;;;;;;;5.34;100.00;101945.44;5022112;28;20037;-60
2022/11/27 09:55:31;;;;;;;18.42;10.10;;;;;;;5.28;100.00;101930.06;5014118;28;20030;-58
2022/11/27 09:58:04;;;;;;;19.20;10.55;;;;;;;5.35;100.00;101942.72;5017463;28;20135;-60
2022/11/27 10:00:30;;;;;;;20.02;10.95;;;;;;;5.35;100.00;101931.34;5012067;28;20041;-60
2022/11/27 10:02:55;;;;;;;19.08;10.30;;;;;;;5.38;100.00;101931.16;5004550;28;20037;-61
2022/11/27 10:05:24;;;;;;;20.55;10.23;;;;;;;5.38;100.00;101925.88;5009216;28;20037;-57
2022/11/27 10:07:58;;;;;;;19.60;10.68;;;;;;;5.41;100.00;101925.66;5007532;28;20049;-58
2022/11/27 10:10:33;;;;;;;17.50;9.85;;;;;;;5.41;100.00;101920.41;5010429;28;20052;-58
2022/11/27 10:13:17;;;;;;;20.33;10.05;;;;;;;5.45;100.00;101913.16;5016820;28;20033;-58
2022/11/27 10:16:07;;;;;;;23.92;10.45;;;;;;;5.48;100.00;101900.63;5005544;28;20045;-57
2022/11/27 10:18:48;;;;;;;22.42;11.38;;;;;;;5.48;100.00;101905.91;5010715;28;20048;-57
2022/11/27 10:21:16;;;;;;;23.48;12.10;;;;;;;5.49;100.00;101897.06;5017396;28;20489;-57
2022/11/27 10:23:48;;;;;;;21.33;11.57;;;;;;;5.51;100.00;101897.81;5012529;28;20037;-60
2022/11/27 10:26:18;;;;;;;21.58;11.38;;;;;;;5.52;100.00;101891.59;5019241;28;20481;-61
2022/11/27 10:29:05;;;;;;;21.17;10.68;;;;;;;5.57;100.00;101887.84;5016905;28;20025;-60
2022/11/27 10:31:50;;;;;;;21.50;10.45;;;;;;;5.58;100.00;101885.06;5018242;28;20033;-59
2022/11/27 10:34:33;;;;;;;19.80;10.63;;;;;;;5.56;100.00;101880.88;5015090;28;20048;-58
2022/11/27 10:37:04;;;;;;;19.83;9.73;;;;;;;5.58;100.00;101879.00;5013608;28;20116;-60
2022/11/27 10:39:39;;;;;;;19.27;9.98;;;;;;;5.61;100.00;101869.09;5018336;28;20057;-56
2022/11/27 10:42:17;;;;;;;22.90;10.85;;;;;;;5.62;100.00;101870.78;5015516;28;20442;-59
2022/11/27 10:45:06;;;;;;;19.13;10.23;;;;;;;5.64;100.00;101868.06;5009916;28;20042;-59
2022/11/27 10:47:32;;;;;;;20.75;11.00;;;;;;;5.64;100.00;101868.88;5008507;28;20037;-56
2022/11/27 10:49:58;;;;;;;19.90;10.75;;;;;;;5.67;100.00;101861.75;5016204;28;20495;-56
2022/11/27 10:52:24;;;;;;;22.38;11.20;;;;;;;5.68;100.00;101859.00;5015863;28;20126;-56
2022/11/27 10:54:56;;;;;;;22.00;11.15;;;;;;;5.70;100.00;101859.75;5015937;28;20472;-61
2022/11/27 10:57:49;;;;;;;21.70;11.90;;;;;;;5.70;100.00;101851.84;5025274;28;20040;-57
2022/11/27 11:00:23;;;;;;;21.08;11.43;;;;;;;5.69;100.00;101849.31;5016249;28;20037;-59
2022/11/27 11:02:59;;;;;;;18.58;10.77;;;;;;;5.69;100.00;101839.63;5027253;28;20034;-56
2022/11/27 11:05:26;;;;;;;22.63;11.07;;;;;;;5.72;100.00;101839.41;5025262;28;20116;-61
2022/11/27 11:08:03;;;;;;;19.27;10.75;;;;;;;5.75;100.00;101836.59;5018506;28;20482;-60
2022/11/27 11:10:42;;;;;;;31.27;15.00;;;;;;;5.75;100.00;101833.09;5019096;28;20172;-57
2022/11/27 11:13:10;;;;;;;19.60;10.90;;;;;;;5.76;100.00;101830.38;5017796;28;20083;-58
2022/11/27 11:15:50;;;;;;;19.20;11.30;;;;;;;5.74;100.00;101819.13;5025971;28;20036;-56
2022/11/27 11:18:17;;;;;;;18.77;9.90;;;;;;;5.72;100.00;101797.31;5012428;28;20076;-59
2022/11/27 11:20:48;;;;;;;17.95;10.10;;;;;;;5.82;100.00;101815.09;5014296;28;20029;-58
2022/11/27 11:23:29;;;;;;;17.00;9.93;;;;;;;5.82;100.00;101813.28;5015149;28;20044;-61
2022/11/27 11:25:58;;;;;;;18.27;9.50;;;;;;;5.82;100.00;101801.94;5013418;28;20080;-56
2022/11/27 11:28:24;;;;;;;16.55;9.75;;;;;;;5.82;100.00;101796.69;5017563;28;20379;-58
2022/11/27 11:31:00;;;;;;;17.40;9.90;;;;;;;5.76;100.00;101788.25;5018628;28;20032;-59